sensor_id;sensor_type;location;lat;lon;timestamp;P1;durP1;ratioP1;P2;durP2;ratioP2
40284;SDS011;25997;50.214;19.354;2022-09-09T00:02:22;9.05;;;8.00;;
40284;SDS011;25997;50.214;19.354;2022-09-09T00:05:31;8.40;;;6.78;;
40284;SDS011;25997;50.214;19.354;2022-09-09T00:08:45;8.32;;;7.53;;
40284;SDS011;25997;50.214;19.354;2022-09-09T00:11:58;8.02;;;7.28;;
40284;SDS011;25997;50.214;19.354;2022-09-09T00:15:06;11.25;;;8.30;;
40284;SDS011;25997;50.214;19.354;2022-09-09T00:18:16;12.00;;;10.63;;
40284;SDS011;25997;50.214;19.354;2022-09-09T00:21:25;10.30;;;9.30;;
40284;SDS011;25997;50.214;19.354;2022-09-09T00:24:39;13.70;;;12.40;;
40284;SDS011;25997;50.214;19.354;2022-09-09T00:30:48;12.07;;;10.93;;
40284;SDS011;25997;50.214;19.354;2022-09-09T00:33:51;11.70;;;10.55;;
40284;SDS011;25997;50.214;19.354;2022-09-09T00:36:57;11.77;;;10.68;;
40284;SDS011;25997;50.214;19.354;2022-09-09T00:40:02;11.95;;;10.32;;
40284;SDS011;25997;50.214;19.354;2022-09-09T00:43:26;12.70;;;11.45;;
40284;SDS011;25997;50.214;19.354;2022-09-09T00:46:42;13.20;;;12.00;;
40284;SDS011;25997;50.214;19.354;2022-09-09T00:49:58;13.20;;;12.07;;
40284;SDS011;25997;50.214;19.354;2022-09-09T00:53:06;12.48;;;11.27;;
40284;SDS011;25997;50.214;19.354;2022-09-09T00:56:22;12.73;;;11.48;;
40284;SDS011;25997;50.214;19.354;2022-09-09T00:59:28;11.27;;;10.27;;
40284;SDS011;25997;50.214;19.354;2022-09-09T01:02:43;12.65;;;10.82;;
40284;SDS011;25997;50.214;19.354;2022-09-09T01:06:12;12.70;;;11.50;;
40284;SDS011;25997;50.214;19.354;2022-09-09T01:09:17;12.02;;;10.50;;
40284;SDS011;25997;50.214;19.354;2022-09-09T01:12:30;12.07;;;10.55;;
40284;SDS011;25997;50.214;19.354;2022-09-09T01:15:41;15.05;;;12.88;;
40284;SDS011;25997;50.214;19.354;2022-09-09T01:18:49;12.27;;;11.13;;
40284;SDS011;25997;50.214;19.354;2022-09-09T01:21:56;9.98;;;8.85;;
40284;SDS011;25997;50.214;19.354;2022-09-09T01:25:22;10.73;;;9.52;;
40284;SDS011;25997;50.214;19.354;2022-09-09T01:28:47;11.23;;;9.55;;
40284;SDS011;25997;50.214;19.354;2022-09-09T01:31:55;12.13;;;9.80;;
40284;SDS011;25997;50.214;19.354;2022-09-09T01:35:00;9.98;;;8.98;;
40284;SDS011;25997;50.214;19.354;2022-09-09T01:38:03;14.25;;;9.88;;
40284;SDS011;25997;50.214;19.354;2022-09-09T01:41:08;10.68;;;9.13;;
40284;SDS011;25997;50.214;19.354;2022-09-09T01:44:22;11.25;;;10.13;;
40284;SDS011;25997;50.214;19.354;2022-09-09T01:47:26;12.10;;;9.80;;
40284;SDS011;25997;50.214;19.354;2022-09-09T01:50:46;11.70;;;10.50;;
40284;SDS011;25997;50.214;19.354;2022-09-09T01:53:49;11.35;;;10.23;;
40284;SDS011;25997;50.214;19.354;2022-09-09T01:56:54;12.95;;;11.65;;
40284;SDS011;25997;50.214;19.354;2022-09-09T02:00:11;13.85;;;12.40;;
40284;SDS011;25997;50.214;19.354;2022-09-09T02:03:17;15.55;;;13.95;;
40284;SDS011;25997;50.214;19.354;2022-09-09T02:06:35;14.07;;;12.60;;
40284;SDS011;25997;50.214;19.354;2022-09-09T02:09:57;16.35;;;14.75;;
40284;SDS011;25997;50.214;19.354;2022-09-09T02:13:04;17.10;;;15.30;;
40284;SDS011;25997;50.214;19.354;2022-09-09T02:16:14;17.80;;;15.85;;
40284;SDS011;25997;50.214;19.354;2022-09-09T02:19:25;18.15;;;16.02;;
40284;SDS011;25997;50.214;19.354;2022-09-09T02:22:38;19.10;;;17.02;;
40284;SDS011;25997;50.214;19.354;2022-09-09T02:25:45;19.00;;;17.02;;
40284;SDS011;25997;50.214;19.354;2022-09-09T02:28:55;18.17;;;15.77;;
40284;SDS011;25997;50.214;19.354;2022-09-09T02:32:05;19.38;;;17.48;;
40284;SDS011;25997;50.214;19.354;2022-09-09T02:35:13;20.67;;;16.23;;
40284;SDS011;25997;50.214;19.354;2022-09-09T02:38:19;19.63;;;17.65;;
40284;SDS011;25997;50.214;19.354;2022-09-09T02:41:39;19.58;;;16.77;;
40284;SDS011;25997;50.214;19.354;2022-09-09T02:44:43;18.15;;;16.45;;
40284;SDS011;25997;50.214;19.354;2022-09-09T02:47:50;16.75;;;15.25;;
40284;SDS011;25997;50.214;19.354;2022-09-09T02:51:00;19.73;;;17.58;;
40284;SDS011;25997;50.214;19.354;2022-09-09T02:54:15;19.10;;;17.08;;
40284;SDS011;25997;50.214;19.354;2022-09-09T02:57:26;20.10;;;16.80;;
40284;SDS011;25997;50.214;19.354;2022-09-09T03:00:32;20.05;;;18.20;;
40284;SDS011;25997;50.214;19.354;2022-09-09T03:03:38;20.20;;;18.23;;
40284;SDS011;25997;50.214;19.354;2022-09-09T03:06:46;19.08;;;17.27;;
40284;SDS011;25997;50.214;19.354;2022-09-09T03:09:53;19.35;;;15.82;;
40284;SDS011;25997;50.214;19.354;2022-09-09T03:12:58;18.85;;;17.05;;
40284;SDS011;25997;50.214;19.354;2022-09-09T03:16:05;19.48;;;17.45;;
40284;SDS011;25997;50.214;19.354;2022-09-09T03:19:15;20.55;;;15.80;;
40284;SDS011;25997;50.214;19.354;2022-09-09T03:22:19;17.33;;;15.60;;
40284;SDS011;25997;50.214;19.354;2022-09-09T03:25:22;17.35;;;15.35;;
40284;SDS011;25997;50.214;19.354;2022-09-09T03:28:27;17.92;;;15.70;;
40284;SDS011;25997;50.214;19.354;2022-09-09T03:31:33;15.80;;;14.40;;
40284;SDS011;25997;50.214;19.354;2022-09-09T03:34:40;16.10;;;14.38;;
40284;SDS011;25997;50.214;19.354;2022-09-09T03:37:46;15.77;;;14.18;;
40284;SDS011;25997;50.214;19.354;2022-09-09T03:40:50;16.02;;;14.45;;
40284;SDS011;25997;50.214;19.354;2022-09-09T03:43:56;18.98;;;15.77;;
40284;SDS011;25997;50.214;19.354;2022-09-09T03:47:01;14.02;;;12.75;;
40284;SDS011;25997;50.214;19.354;2022-09-09T03:50:06;19.25;;;16.58;;
40284;SDS011;25997;50.214;19.354;2022-09-09T03:53:14;18.27;;;16.67;;
40284;SDS011;25997;50.214;19.354;2022-09-09T03:56:18;22.60;;;20.25;;
40284;SDS011;25997;50.214;19.354;2022-09-09T03:59:22;19.23;;;17.58;;
40284;SDS011;25997;50.214;19.354;2022-09-09T04:02:26;18.75;;;17.05;;
40284;SDS011;25997;50.214;19.354;2022-09-09T04:05:30;22.35;;;20.25;;
40284;SDS011;25997;50.214;19.354;2022-09-09T04:08:34;27.35;;;24.85;;
40284;SDS011;25997;50.214;19.354;2022-09-09T04:11:40;28.77;;;26.27;;
40284;SDS011;25997;50.214;19.354;2022-09-09T04:14:43;29.30;;;26.73;;
40284;SDS011;25997;50.214;19.354;2022-09-09T04:17:45;30.55;;;27.55;;
40284;SDS011;25997;50.214;19.354;2022-09-09T04:20:50;29.50;;;26.67;;
40284;SDS011;25997;50.214;19.354;2022-09-09T04:23:56;33.08;;;29.83;;
40284;SDS011;25997;50.214;19.354;2022-09-09T04:27:00;34.42;;;27.95;;
40284;SDS011;25997;50.214;19.354;2022-09-09T04:30:03;34.72;;;30.00;;
40284;SDS011;25997;50.214;19.354;2022-09-09T04:33:08;123.97;;;31.52;;
40284;SDS011;25997;50.214;19.354;2022-09-09T04:36:13;114.95;;;33.50;;
40284;SDS011;25997;50.214;19.354;2022-09-09T04:39:16;241.50;;;32.88;;
40284;SDS011;25997;50.214;19.354;2022-09-09T04:42:20;357.08;;;37.33;;
40284;SDS011;25997;50.214;19.354;2022-09-09T04:45:23;452.20;;;40.30;;
40284;SDS011;25997;50.214;19.354;2022-09-09T04:48:27;249.85;;;31.80;;
40284;SDS011;25997;50.214;19.354;2022-09-09T04:51:34;120.45;;;31.13;;
40284;SDS011;25997;50.214;19.354;2022-09-09T04:54:37;41.22;;;24.67;;
40284;SDS011;25997;50.214;19.354;2022-09-09T04:57:39;24.75;;;22.27;;
40284;SDS011;25997;50.214;19.354;2022-09-09T05:00:46;18.52;;;16.77;;
40284;SDS011;25997;50.214;19.354;2022-09-09T05:03:50;15.65;;;14.05;;
40284;SDS011;25997;50.214;19.354;2022-09-09T05:06:58;14.85;;;12.82;;
40284;SDS011;25997;50.214;19.354;2022-09-09T05:10:01;16.23;;;13.15;;
40284;SDS011;25997;50.214;19.354;2022-09-09T05:13:07;14.32;;;12.88;;
40284;SDS011;25997;50.214;19.354;2022-09-09T05:16:10;13.90;;;12.50;;
40284;SDS011;25997;50.214;19.354;2022-09-09T05:19:13;15.60;;;12.68;;
40284;SDS011;25997;50.214;19.354;2022-09-09T05:22:23;14.23;;;12.25;;
40284;SDS011;25997;50.214;19.354;2022-09-09T05:25:27;14.32;;;12.95;;
40284;SDS011;25997;50.214;19.354;2022-09-09T05:28:31;15.35;;;12.63;;
40284;SDS011;25997;50.214;19.354;2022-09-09T05:31:37;12.82;;;10.88;;
40284;SDS011;25997;50.214;19.354;2022-09-09T05:34:44;11.63;;;9.75;;
40284;SDS011;25997;50.214;19.354;2022-09-09T05:37:49;10.25;;;9.25;;
40284;SDS011;25997;50.214;19.354;2022-09-09T05:40:51;10.43;;;9.43;;
40284;SDS011;25997;50.214;19.354;2022-09-09T05:43:54;9.77;;;8.63;;
40284;SDS011;25997;50.214;19.354;2022-09-09T05:47:00;11.68;;;9.27;;
40284;SDS011;25997;50.214;19.354;2022-09-09T05:50:03;10.18;;;8.85;;
40284;SDS011;25997;50.214;19.354;2022-09-09T05:53:08;10.88;;;9.52;;
40284;SDS011;25997;50.214;19.354;2022-09-09T05:56:12;9.18;;;8.13;;
40284;SDS011;25997;50.214;19.354;2022-09-09T05:59:17;11.90;;;8.63;;
40284;SDS011;25997;50.214;19.354;2022-09-09T06:02:20;12.40;;;11.18;;
40284;SDS011;25997;50.214;19.354;2022-09-09T06:05:24;15.13;;;12.88;;
40284;SDS011;25997;50.214;19.354;2022-09-09T06:08:30;15.57;;;13.32;;
40284;SDS011;25997;50.214;19.354;2022-09-09T06:11:34;14.43;;;12.70;;
40284;SDS011;25997;50.214;19.354;2022-09-09T06:14:37;18.95;;;17.10;;
40284;SDS011;25997;50.214;19.354;2022-09-09T06:17:40;15.75;;;14.35;;
40284;SDS011;25997;50.214;19.354;2022-09-09T06:20:52;17.70;;;15.82;;
40284;SDS011;25997;50.214;19.354;2022-09-09T06:23:57;21.83;;;19.63;;
40284;SDS011;25997;50.214;19.354;2022-09-09T06:27:00;21.17;;;19.15;;
40284;SDS011;25997;50.214;19.354;2022-09-09T06:30:07;30.00;;;27.50;;
40284;SDS011;25997;50.214;19.354;2022-09-09T06:33:11;19.88;;;18.00;;
40284;SDS011;25997;50.214;19.354;2022-09-09T06:36:15;20.35;;;18.50;;
40284;SDS011;25997;50.214;19.354;2022-09-09T06:39:21;20.50;;;18.38;;
40284;SDS011;25997;50.214;19.354;2022-09-09T06:42:24;15.85;;;14.45;;
40284;SDS011;25997;50.214;19.354;2022-09-09T06:45:38;14.45;;;12.02;;
40284;SDS011;25997;50.214;19.354;2022-09-09T06:48:43;10.43;;;9.40;;
40284;SDS011;25997;50.214;19.354;2022-09-09T06:51:48;9.13;;;6.95;;
40284;SDS011;25997;50.214;19.354;2022-09-09T06:54:52;9.70;;;8.80;;
40284;SDS011;25997;50.214;19.354;2022-09-09T06:57:55;13.23;;;9.70;;
40284;SDS011;25997;50.214;19.354;2022-09-09T07:01:02;10.23;;;7.07;;
40284;SDS011;25997;50.214;19.354;2022-09-09T07:04:06;8.95;;;8.10;;
40284;SDS011;25997;50.214;19.354;2022-09-09T07:07:13;9.93;;;7.85;;
40284;SDS011;25997;50.214;19.354;2022-09-09T07:10:17;7.68;;;6.97;;
40284;SDS011;25997;50.214;19.354;2022-09-09T07:13:23;9.48;;;7.90;;
40284;SDS011;25997;50.214;19.354;2022-09-09T07:16:27;11.18;;;10.27;;
40284;SDS011;25997;50.214;19.354;2022-09-09T07:19:32;12.25;;;8.20;;
40284;SDS011;25997;50.214;19.354;2022-09-09T07:22:38;9.57;;;8.68;;
40284;SDS011;25997;50.214;19.354;2022-09-09T07:25:45;8.00;;;6.07;;
40284;SDS011;25997;50.214;19.354;2022-09-09T07:28:50;10.23;;;8.43;;
40284;SDS011;25997;50.214;19.354;2022-09-09T07:31:53;8.55;;;7.47;;
40284;SDS011;25997;50.214;19.354;2022-09-09T07:35:01;9.65;;;8.68;;
40284;SDS011;25997;50.214;19.354;2022-09-09T07:38:04;8.90;;;7.72;;
40284;SDS011;25997;50.214;19.354;2022-09-09T07:41:10;8.30;;;7.43;;
40284;SDS011;25997;50.214;19.354;2022-09-09T07:44:15;9.43;;;7.20;;
40284;SDS011;25997;50.214;19.354;2022-09-09T07:47:22;10.15;;;7.68;;
40284;SDS011;25997;50.214;19.354;2022-09-09T07:50:25;8.63;;;7.13;;
40284;SDS011;25997;50.214;19.354;2022-09-09T07:53:28;10.07;;;8.15;;
40284;SDS011;25997;50.214;19.354;2022-09-09T07:56:33;8.70;;;7.78;;
40284;SDS011;25997;50.214;19.354;2022-09-09T07:59:36;8.70;;;7.80;;
40284;SDS011;25997;50.214;19.354;2022-09-09T08:02:39;7.30;;;6.18;;
40284;SDS011;25997;50.214;19.354;2022-09-09T08:05:44;7.65;;;6.45;;
40284;SDS011;25997;50.214;19.354;2022-09-09T08:08:49;8.43;;;6.40;;
40284;SDS011;25997;50.214;19.354;2022-09-09T08:11:54;6.07;;;5.38;;
40284;SDS011;25997;50.214;19.354;2022-09-09T08:14:58;7.05;;;5.78;;
40284;SDS011;25997;50.214;19.354;2022-09-09T08:18:04;7.90;;;5.00;;
40284;SDS011;25997;50.214;19.354;2022-09-09T08:21:08;7.55;;;5.50;;
40284;SDS011;25997;50.214;19.354;2022-09-09T08:24:13;5.55;;;4.80;;
40284;SDS011;25997;50.214;19.354;2022-09-09T08:27:22;8.27;;;4.70;;
40284;SDS011;25997;50.214;19.354;2022-09-09T08:30:25;5.10;;;4.10;;
40284;SDS011;25997;50.214;19.354;2022-09-09T08:33:28;4.03;;;3.53;;
40284;SDS011;25997;50.214;19.354;2022-09-09T08:36:32;4.78;;;4.13;;
40284;SDS011;25997;50.214;19.354;2022-09-09T08:39:36;8.68;;;3.90;;
40284;SDS011;25997;50.214;19.354;2022-09-09T08:42:41;6.28;;;3.83;;
40284;SDS011;25997;50.214;19.354;2022-09-09T08:45:50;4.30;;;3.45;;
40284;SDS011;25997;50.214;19.354;2022-09-09T08:49:04;5.10;;;3.55;;
40284;SDS011;25997;50.214;19.354;2022-09-09T08:52:19;6.97;;;3.55;;
40284;SDS011;25997;50.214;19.354;2022-09-09T08:55:30;4.75;;;3.42;;
40284;SDS011;25997;50.214;19.354;2022-09-09T08:58:42;3.90;;;3.30;;
40284;SDS011;25997;50.214;19.354;2022-09-09T09:01:50;4.85;;;3.78;;
40284;SDS011;25997;50.214;19.354;2022-09-09T09:05:15;3.60;;;2.40;;
40284;SDS011;25997;50.214;19.354;2022-09-09T09:08:26;4.70;;;3.17;;
40284;SDS011;25997;50.214;19.354;2022-09-09T09:11:34;4.75;;;3.72;;
40284;SDS011;25997;50.214;19.354;2022-09-09T09:14:41;5.10;;;3.08;;
40284;SDS011;25997;50.214;19.354;2022-09-09T09:17:46;5.30;;;2.83;;
40284;SDS011;25997;50.214;19.354;2022-09-09T09:20:54;4.70;;;3.13;;
40284;SDS011;25997;50.214;19.354;2022-09-09T09:24:05;5.20;;;3.35;;
40284;SDS011;25997;50.214;19.354;2022-09-09T09:27:18;6.80;;;3.80;;
40284;SDS011;25997;50.214;19.354;2022-09-09T09:30:36;4.22;;;2.65;;
40284;SDS011;25997;50.214;19.354;2022-09-09T09:33:46;4.45;;;3.15;;
40284;SDS011;25997;50.214;19.354;2022-09-09T09:36:53;3.25;;;2.40;;
40284;SDS011;25997;50.214;19.354;2022-09-09T09:40:10;3.38;;;2.35;;
40284;SDS011;25997;50.214;19.354;2022-09-09T09:43:17;6.68;;;2.78;;
40284;SDS011;25997;50.214;19.354;2022-09-09T09:46:24;4.25;;;2.35;;
40284;SDS011;25997;50.214;19.354;2022-09-09T09:49:31;3.88;;;2.88;;
40284;SDS011;25997;50.214;19.354;2022-09-09T09:52:34;3.80;;;2.28;;
40284;SDS011;25997;50.214;19.354;2022-09-09T09:55:44;4.78;;;2.38;;
40284;SDS011;25997;50.214;19.354;2022-09-09T09:58:54;4.68;;;3.13;;
40284;SDS011;25997;50.214;19.354;2022-09-09T10:02:16;3.90;;;2.38;;
40284;SDS011;25997;50.214;19.354;2022-09-09T10:05:28;6.05;;;2.63;;
40284;SDS011;25997;50.214;19.354;2022-09-09T10:08:44;3.17;;;1.92;;
40284;SDS011;25997;50.214;19.354;2022-09-09T10:11:49;5.35;;;3.05;;
40284;SDS011;25997;50.214;19.354;2022-09-09T10:14:59;4.85;;;2.70;;
40284;SDS011;25997;50.214;19.354;2022-09-09T10:18:15;5.45;;;3.08;;
40284;SDS011;25997;50.214;19.354;2022-09-09T10:28:46;7.47;;;3.72;;
40284;SDS011;25997;50.214;19.354;2022-09-09T10:32:02;7.88;;;3.97;;
40284;SDS011;25997;50.214;19.354;2022-09-09T10:35:17;7.07;;;2.88;;
40284;SDS011;25997;50.214;19.354;2022-09-09T10:38:28;5.50;;;2.70;;
40284;SDS011;25997;50.214;19.354;2022-09-09T10:41:39;5.78;;;3.20;;
40284;SDS011;25997;50.214;19.354;2022-09-09T10:44:55;4.38;;;2.47;;
40284;SDS011;25997;50.214;19.354;2022-09-09T10:48:11;3.88;;;2.30;;
40284;SDS011;25997;50.214;19.354;2022-09-09T10:51:30;8.60;;;2.53;;
40284;SDS011;25997;50.214;19.354;2022-09-09T10:54:46;5.25;;;3.40;;
40284;SDS011;25997;50.214;19.354;2022-09-09T10:57:59;6.00;;;2.15;;
40284;SDS011;25997;50.214;19.354;2022-09-09T11:01:07;3.60;;;2.10;;
40284;SDS011;25997;50.214;19.354;2022-09-09T11:04:17;2.80;;;2.20;;
40284;SDS011;25997;50.214;19.354;2022-09-09T11:07:29;3.03;;;2.25;;
40284;SDS011;25997;50.214;19.354;2022-09-09T11:10:41;3.28;;;2.30;;
40284;SDS011;25997;50.214;19.354;2022-09-09T11:13:49;3.67;;;2.03;;
40284;SDS011;25997;50.214;19.354;2022-09-09T11:16:59;4.07;;;2.08;;
40284;SDS011;25997;50.214;19.354;2022-09-09T11:20:05;3.33;;;2.33;;
40284;SDS011;25997;50.214;19.354;2022-09-09T11:23:15;4.27;;;2.43;;
40284;SDS011;25997;50.214;19.354;2022-09-09T11:26:25;6.45;;;3.40;;
40284;SDS011;25997;50.214;19.354;2022-09-09T11:33:18;4.90;;;3.20;;
40284;SDS011;25997;50.214;19.354;2022-09-09T11:36:39;3.53;;;1.83;;
40284;SDS011;25997;50.214;19.354;2022-09-09T11:39:59;3.88;;;2.33;;
40284;SDS011;25997;50.214;19.354;2022-09-09T11:43:11;4.35;;;2.10;;
40284;SDS011;25997;50.214;19.354;2022-09-09T11:46:16;6.75;;;2.67;;
40284;SDS011;25997;50.214;19.354;2022-09-09T11:49:26;4.55;;;3.25;;
40284;SDS011;25997;50.214;19.354;2022-09-09T11:52:36;7.75;;;3.03;;
40284;SDS011;25997;50.214;19.354;2022-09-09T11:55:41;3.50;;;2.70;;
40284;SDS011;25997;50.214;19.354;2022-09-09T11:58:44;5.10;;;3.45;;
40284;SDS011;25997;50.214;19.354;2022-09-09T12:01:58;8.45;;;3.15;;
40284;SDS011;25997;50.214;19.354;2022-09-09T12:05:04;5.68;;;3.00;;
40284;SDS011;25997;50.214;19.354;2022-09-09T12:08:10;2.70;;;2.20;;
40284;SDS011;25997;50.214;19.354;2022-09-09T12:11:27;3.33;;;1.90;;
40284;SDS011;25997;50.214;19.354;2022-09-09T12:14:35;3.70;;;1.80;;
40284;SDS011;25997;50.214;19.354;2022-09-09T12:17:41;2.60;;;1.85;;
40284;SDS011;25997;50.214;19.354;2022-09-09T12:20:50;2.65;;;1.83;;
40284;SDS011;25997;50.214;19.354;2022-09-09T12:23:59;4.35;;;1.92;;
40284;SDS011;25997;50.214;19.354;2022-09-09T12:27:11;6.07;;;2.40;;
40284;SDS011;25997;50.214;19.354;2022-09-09T12:30:20;8.70;;;4.28;;
40284;SDS011;25997;50.214;19.354;2022-09-09T12:33:33;5.85;;;3.30;;
40284;SDS011;25997;50.214;19.354;2022-09-09T12:36:37;3.42;;;1.95;;
40284;SDS011;25997;50.214;19.354;2022-09-09T12:39:42;4.05;;;2.33;;
40284;SDS011;25997;50.214;19.354;2022-09-09T12:42:50;3.47;;;2.05;;
40284;SDS011;25997;50.214;19.354;2022-09-09T12:45:55;3.33;;;2.03;;
40284;SDS011;25997;50.214;19.354;2022-09-09T12:49:01;5.45;;;3.13;;
40284;SDS011;25997;50.214;19.354;2022-09-09T12:52:04;4.57;;;3.28;;
40284;SDS011;25997;50.214;19.354;2022-09-09T12:55:15;4.75;;;2.15;;
40284;SDS011;25997;50.214;19.354;2022-09-09T12:58:23;3.72;;;2.63;;
40284;SDS011;25997;50.214;19.354;2022-09-09T13:01:29;5.65;;;3.00;;
40284;SDS011;25997;50.214;19.354;2022-09-09T13:04:33;5.15;;;2.58;;
40284;SDS011;25997;50.214;19.354;2022-09-09T13:07:36;4.57;;;2.13;;
40284;SDS011;25997;50.214;19.354;2022-09-09T13:10:39;3.35;;;1.73;;
40284;SDS011;25997;50.214;19.354;2022-09-09T13:13:52;3.78;;;2.67;;
40284;SDS011;25997;50.214;19.354;2022-09-09T13:16:57;4.97;;;2.00;;
40284;SDS011;25997;50.214;19.354;2022-09-09T13:20:01;3.67;;;2.10;;
40284;SDS011;25997;50.214;19.354;2022-09-09T13:23:05;3.53;;;2.08;;
40284;SDS011;25997;50.214;19.354;2022-09-09T13:26:20;3.58;;;1.95;;
40284;SDS011;25997;50.214;19.354;2022-09-09T13:29:26;4.32;;;2.75;;
40284;SDS011;25997;50.214;19.354;2022-09-09T13:32:28;5.50;;;2.78;;
40284;SDS011;25997;50.214;19.354;2022-09-09T13:35:31;7.72;;;2.95;;
40284;SDS011;25997;50.214;19.354;2022-09-09T13:38:35;4.63;;;2.42;;
40284;SDS011;25997;50.214;19.354;2022-09-09T13:41:41;5.45;;;3.65;;
40284;SDS011;25997;50.214;19.354;2022-09-09T13:44:47;35.28;;;32.55;;
40284;SDS011;25997;50.214;19.354;2022-09-09T13:47:49;13.27;;;12.23;;
40284;SDS011;25997;50.214;19.354;2022-09-09T13:50:56;9.60;;;8.05;;
40284;SDS011;25997;50.214;19.354;2022-09-09T13:54:00;10.52;;;3.60;;
40284;SDS011;25997;50.214;19.354;2022-09-09T13:57:02;6.10;;;3.30;;
40284;SDS011;25997;50.214;19.354;2022-09-09T14:00:09;5.75;;;3.20;;
40284;SDS011;25997;50.214;19.354;2022-09-09T14:03:14;5.47;;;3.10;;
40284;SDS011;25997;50.214;19.354;2022-09-09T14:06:16;5.38;;;3.70;;
40284;SDS011;25997;50.214;19.354;2022-09-09T14:09:20;5.43;;;2.60;;
40284;SDS011;25997;50.214;19.354;2022-09-09T14:12:22;6.55;;;3.00;;
40284;SDS011;25997;50.214;19.354;2022-09-09T14:15:27;4.57;;;2.65;;
40284;SDS011;25997;50.214;19.354;2022-09-09T14:18:29;6.57;;;4.57;;
40284;SDS011;25997;50.214;19.354;2022-09-09T14:21:32;4.75;;;2.63;;
40284;SDS011;25997;50.214;19.354;2022-09-09T14:24:34;4.72;;;2.38;;
40284;SDS011;25997;50.214;19.354;2022-09-09T14:27:37;5.32;;;2.72;;
40284;SDS011;25997;50.214;19.354;2022-09-09T14:30:42;5.85;;;3.00;;
40284;SDS011;25997;50.214;19.354;2022-09-09T14:33:45;4.70;;;2.70;;
40284;SDS011;25997;50.214;19.354;2022-09-09T14:36:48;5.57;;;3.20;;
40284;SDS011;25997;50.214;19.354;2022-09-09T14:39:51;3.05;;;2.28;;
40284;SDS011;25997;50.214;19.354;2022-09-09T14:42:54;2.95;;;1.88;;
40284;SDS011;25997;50.214;19.354;2022-09-09T14:45:59;4.10;;;2.25;;
40284;SDS011;25997;50.214;19.354;2022-09-09T14:49:07;6.85;;;5.88;;
40284;SDS011;25997;50.214;19.354;2022-09-09T14:52:10;5.05;;;2.92;;
40284;SDS011;25997;50.214;19.354;2022-09-09T14:55:13;5.30;;;3.85;;
40284;SDS011;25997;50.214;19.354;2022-09-09T14:58:16;5.85;;;3.83;;
40284;SDS011;25997;50.214;19.354;2022-09-09T15:01:21;4.53;;;3.10;;
40284;SDS011;25997;50.214;19.354;2022-09-09T15:04:24;3.38;;;2.03;;
40284;SDS011;25997;50.214;19.354;2022-09-09T15:07:26;5.05;;;2.78;;
40284;SDS011;25997;50.214;19.354;2022-09-09T15:10:29;8.10;;;5.55;;
40284;SDS011;25997;50.214;19.354;2022-09-09T15:13:33;7.75;;;6.03;;
40284;SDS011;25997;50.214;19.354;2022-09-09T15:16:39;6.57;;;4.97;;
40284;SDS011;25997;50.214;19.354;2022-09-09T15:19:42;10.10;;;6.93;;
40284;SDS011;25997;50.214;19.354;2022-09-09T15:22:44;6.45;;;3.72;;
40284;SDS011;25997;50.214;19.354;2022-09-09T15:25:50;7.05;;;4.07;;
40284;SDS011;25997;50.214;19.354;2022-09-09T15:28:53;6.60;;;4.35;;
40284;SDS011;25997;50.214;19.354;2022-09-09T15:31:57;5.07;;;2.30;;
40284;SDS011;25997;50.214;19.354;2022-09-09T15:35:00;3.90;;;2.78;;
40284;SDS011;25997;50.214;19.354;2022-09-09T15:38:03;3.75;;;2.92;;
40284;SDS011;25997;50.214;19.354;2022-09-09T15:41:06;4.40;;;2.67;;
40284;SDS011;25997;50.214;19.354;2022-09-09T15:44:09;3.83;;;2.00;;
40284;SDS011;25997;50.214;19.354;2022-09-09T15:47:14;3.22;;;2.03;;
40284;SDS011;25997;50.214;19.354;2022-09-09T15:50:17;3.05;;;2.33;;
40284;SDS011;25997;50.214;19.354;2022-09-09T15:53:19;3.67;;;2.78;;
40284;SDS011;25997;50.214;19.354;2022-09-09T15:56:22;4.28;;;2.75;;
40284;SDS011;25997;50.214;19.354;2022-09-09T15:59:25;6.07;;;4.47;;
40284;SDS011;25997;50.214;19.354;2022-09-09T16:02:31;4.30;;;2.80;;
40284;SDS011;25997;50.214;19.354;2022-09-09T16:05:33;12.43;;;7.95;;
40284;SDS011;25997;50.214;19.354;2022-09-09T16:08:36;4.32;;;2.83;;
40284;SDS011;25997;50.214;19.354;2022-09-09T16:11:40;2.53;;;1.35;;
40284;SDS011;25997;50.214;19.354;2022-09-09T16:14:42;3.40;;;1.88;;
40284;SDS011;25997;50.214;19.354;2022-09-09T16:17:47;5.45;;;3.20;;
40284;SDS011;25997;50.214;19.354;2022-09-09T16:20:53;8.38;;;5.55;;
40284;SDS011;25997;50.214;19.354;2022-09-09T16:23:57;7.13;;;3.42;;
40284;SDS011;25997;50.214;19.354;2022-09-09T16:27:01;4.22;;;2.50;;
40284;SDS011;25997;50.214;19.354;2022-09-09T16:30:04;5.65;;;4.28;;
40284;SDS011;25997;50.214;19.354;2022-09-09T16:33:08;16.15;;;14.27;;
40284;SDS011;25997;50.214;19.354;2022-09-09T16:36:11;13.52;;;10.35;;
40284;SDS011;25997;50.214;19.354;2022-09-09T16:39:16;9.95;;;6.15;;
40284;SDS011;25997;50.214;19.354;2022-09-09T16:42:20;7.32;;;4.40;;
40284;SDS011;25997;50.214;19.354;2022-09-09T16:45:22;6.60;;;3.53;;
40284;SDS011;25997;50.214;19.354;2022-09-09T16:48:26;5.07;;;3.63;;
40284;SDS011;25997;50.214;19.354;2022-09-09T16:51:30;4.88;;;3.63;;
40284;SDS011;25997;50.214;19.354;2022-09-09T16:54:34;4.68;;;3.72;;
40284;SDS011;25997;50.214;19.354;2022-09-09T16:57:36;4.93;;;3.50;;
40284;SDS011;25997;50.214;19.354;2022-09-09T17:00:39;6.55;;;2.80;;
40284;SDS011;25997;50.214;19.354;2022-09-09T17:03:43;6.22;;;2.30;;
40284;SDS011;25997;50.214;19.354;2022-09-09T17:06:46;3.22;;;1.58;;
40284;SDS011;25997;50.214;19.354;2022-09-09T17:09:49;5.07;;;1.90;;
40284;SDS011;25997;50.214;19.354;2022-09-09T17:12:52;3.38;;;1.60;;
40284;SDS011;25997;50.214;19.354;2022-09-09T17:15:55;3.20;;;2.10;;
40284;SDS011;25997;50.214;19.354;2022-09-09T17:18:59;5.43;;;3.20;;
40284;SDS011;25997;50.214;19.354;2022-09-09T17:22:04;5.28;;;2.97;;
40284;SDS011;25997;50.214;19.354;2022-09-09T17:25:07;6.75;;;2.60;;
40284;SDS011;25997;50.214;19.354;2022-09-09T17:28:10;3.90;;;2.17;;
40284;SDS011;25997;50.214;19.354;2022-09-09T17:31:13;6.65;;;3.35;;
40284;SDS011;25997;50.214;19.354;2022-09-09T17:34:19;4.70;;;2.65;;
40284;SDS011;25997;50.214;19.354;2022-09-09T17:37:21;4.43;;;2.05;;
40284;SDS011;25997;50.214;19.354;2022-09-09T17:40:24;5.80;;;2.42;;
40284;SDS011;25997;50.214;19.354;2022-09-09T17:43:26;3.83;;;2.65;;
40284;SDS011;25997;50.214;19.354;2022-09-09T17:46:29;4.70;;;2.80;;
40284;SDS011;25997;50.214;19.354;2022-09-09T17:49:35;3.25;;;2.67;;
40284;SDS011;25997;50.214;19.354;2022-09-09T17:52:38;6.43;;;3.20;;
40284;SDS011;25997;50.214;19.354;2022-09-09T17:55:41;6.15;;;3.28;;
40284;SDS011;25997;50.214;19.354;2022-09-09T17:58:44;4.05;;;3.33;;
40284;SDS011;25997;50.214;19.354;2022-09-09T18:01:47;6.03;;;3.35;;
40284;SDS011;25997;50.214;19.354;2022-09-09T18:04:52;10.10;;;3.88;;
40284;SDS011;25997;50.214;19.354;2022-09-09T18:07:54;5.90;;;3.63;;
40284;SDS011;25997;50.214;19.354;2022-09-09T18:10:57;6.43;;;3.70;;
40284;SDS011;25997;50.214;19.354;2022-09-09T18:14:02;7.63;;;4.25;;
40284;SDS011;25997;50.214;19.354;2022-09-09T18:17:05;6.13;;;4.68;;
40284;SDS011;25997;50.214;19.354;2022-09-09T18:20:10;10.25;;;4.00;;
40284;SDS011;25997;50.214;19.354;2022-09-09T18:23:12;11.05;;;4.63;;
40284;SDS011;25997;50.214;19.354;2022-09-09T18:26:16;13.38;;;4.13;;
40284;SDS011;25997;50.214;19.354;2022-09-09T18:29:21;10.43;;;4.82;;
40284;SDS011;25997;50.214;19.354;2022-09-09T18:32:25;57.20;;;47.05;;